sensor_id;sensor_type;location;lat;lon;timestamp;temperature;humidity
19174;DHT22;9719;49.322;8.536;2022-09-03T00:00:27;21.60;43.20
19174;DHT22;9719;49.322;8.536;2022-09-03T00:05:36;21.60;43.30
19174;DHT22;9719;49.322;8.536;2022-09-03T00:10:45;21.60;43.40
19174;DHT22;9719;49.322;8.536;2022-09-03T00:15:52;21.60;43.50
19174;DHT22;9719;49.322;8.536;2022-09-03T00:20:58;21.60;43.50
19174;DHT22;9719;49.322;8.536;2022-09-03T00:26:17;21.60;43.80
19174;DHT22;9719;49.322;8.536;2022-09-03T00:31:27;21.60;44.60
19174;DHT22;9719;49.322;8.536;2022-09-03T00:36:34;21.40;45.30
19174;DHT22;9719;49.322;8.536;2022-09-03T00:41:52;21.30;45.30
19174;DHT22;9719;49.322;8.536;2022-09-03T00:47:03;21.30;46.10
19174;DHT22;9719;49.322;8.536;2022-09-03T00:52:15;21.10;47.50
19174;DHT22;9719;49.322;8.536;2022-09-03T00:57:29;20.70;48.20
19174;DHT22;9719;49.322;8.536;2022-09-03T01:02:56;20.60;48.70
19174;DHT22;9719;49.322;8.536;2022-09-03T01:08:07;20.60;48.40
19174;DHT22;9719;49.322;8.536;2022-09-03T01:13:14;20.60;48.60
19174;DHT22;9719;49.322;8.536;2022-09-03T01:18:24;20.60;48.50
19174;DHT22;9719;49.322;8.536;2022-09-03T01:23:49;20.60;48.50
19174;DHT22;9719;49.322;8.536;2022-09-03T01:29:07;20.60;48.50
19174;DHT22;9719;49.322;8.536;2022-09-03T01:34:19;20.70;48.60
19174;DHT22;9719;49.322;8.536;2022-09-03T01:39:28;20.70;48.10
19174;DHT22;9719;49.322;8.536;2022-09-03T01:44:40;20.70;48.00
19174;DHT22;9719;49.322;8.536;2022-09-03T01:49:52;20.70;47.90
19174;DHT22;9719;49.322;8.536;2022-09-03T01:55:05;20.80;48.00
19174;DHT22;9719;49.322;8.536;2022-09-03T02:00:14;20.80;47.60
19174;DHT22;9719;49.322;8.536;2022-09-03T02:05:20;20.80;48.00
19174;DHT22;9719;49.322;8.536;2022-09-03T02:10:26;20.70;48.00
19174;DHT22;9719;49.322;8.536;2022-09-03T02:15:34;20.80;47.60
19174;DHT22;9719;49.322;8.536;2022-09-03T02:20:38;20.70;47.60
19174;DHT22;9719;49.322;8.536;2022-09-03T02:25:44;20.80;47.50
19174;DHT22;9719;49.322;8.536;2022-09-03T02:30:47;20.70;47.70
19174;DHT22;9719;49.322;8.536;2022-09-03T02:35:50;20.70;47.60
19174;DHT22;9719;49.322;8.536;2022-09-03T02:40:53;20.60;47.70
19174;DHT22;9719;49.322;8.536;2022-09-03T02:46:01;20.60;47.70
19174;DHT22;9719;49.322;8.536;2022-09-03T02:51:03;20.50;48.00
19174;DHT22;9719;49.322;8.536;2022-09-03T03:13:20;20.40;48.10
19174;DHT22;9719;49.322;8.536;2022-09-03T03:18:22;20.30;48.20
19174;DHT22;9719;49.322;8.536;2022-09-03T03:23:24;20.30;48.50
19174;DHT22;9719;49.322;8.536;2022-09-03T03:28:27;20.20;48.40
19174;DHT22;9719;49.322;8.536;2022-09-03T03:33:31;20.20;48.50
19174;DHT22;9719;49.322;8.536;2022-09-03T03:38:34;20.20;48.50
19174;DHT22;9719;49.322;8.536;2022-09-03T03:43:38;20.20;48.60
19174;DHT22;9719;49.322;8.536;2022-09-03T03:48:40;20.20;48.60
19174;DHT22;9719;49.322;8.536;2022-09-03T03:53:42;20.20;48.70
19174;DHT22;9719;49.322;8.536;2022-09-03T03:58:46;20.10;48.90
19174;DHT22;9719;49.322;8.536;2022-09-03T04:03:48;20.20;48.80
19174;DHT22;9719;49.322;8.536;2022-09-03T04:08:50;20.20;48.90
19174;DHT22;9719;49.322;8.536;2022-09-03T04:13:53;20.20;48.90
19174;DHT22;9719;49.322;8.536;2022-09-03T04:18:56;20.20;49.00
19174;DHT22;9719;49.322;8.536;2022-09-03T04:23:58;20.20;49.10
19174;DHT22;9719;49.322;8.536;2022-09-03T04:29:03;20.30;49.20
19174;DHT22;9719;49.322;8.536;2022-09-03T04:34:05;20.20;49.40
19174;DHT22;9719;49.322;8.536;2022-09-03T04:39:07;20.20;49.80
19174;DHT22;9719;49.322;8.536;2022-09-03T04:44:11;20.20;50.00
19174;DHT22;9719;49.322;8.536;2022-09-03T04:49:13;20.10;50.30
19174;DHT22;9719;49.322;8.536;2022-09-03T04:54:16;20.00;50.60
19174;DHT22;9719;49.322;8.536;2022-09-03T04:59:19;19.90;51.10
19174;DHT22;9719;49.322;8.536;2022-09-03T05:04:21;19.80;51.60
19174;DHT22;9719;49.322;8.536;2022-09-03T05:09:23;19.70;51.90
19174;DHT22;9719;49.322;8.536;2022-09-03T05:14:26;19.70;52.20
19174;DHT22;9719;49.322;8.536;2022-09-03T05:19:29;19.60;52.50
19174;DHT22;9719;49.322;8.536;2022-09-03T05:24:31;19.50;52.90
19174;DHT22;9719;49.322;8.536;2022-09-03T05:29:34;19.40;52.90
19174;DHT22;9719;49.322;8.536;2022-09-03T05:34:36;19.40;53.20
19174;DHT22;9719;49.322;8.536;2022-09-03T05:39:38;19.40;53.30
19174;DHT22;9719;49.322;8.536;2022-09-03T05:44:42;19.30;53.50
19174;DHT22;9719;49.322;8.536;2022-09-03T05:49:44;19.40;53.80
19174;DHT22;9719;49.322;8.536;2022-09-03T05:54:45;19.40;53.90
19174;DHT22;9719;49.322;8.536;2022-09-03T05:59:49;19.40;54.20
19174;DHT22;9719;49.322;8.536;2022-09-03T06:04:51;19.40;54.30
19174;DHT22;9719;49.322;8.536;2022-09-03T06:09:54;19.40;54.50
19174;DHT22;9719;49.322;8.536;2022-09-03T06:14:57;19.40;55.00
19174;DHT22;9719;49.322;8.536;2022-09-03T06:19:59;19.40;55.70
19174;DHT22;9719;49.322;8.536;2022-09-03T06:25:01;19.10;57.00
19174;DHT22;9719;49.322;8.536;2022-09-03T06:30:05;18.60;58.10
19174;DHT22;9719;49.322;8.536;2022-09-03T06:35:08;18.10;60.20
19174;DHT22;9719;49.322;8.536;2022-09-03T06:40:10;17.60;61.90
19174;DHT22;9719;49.322;8.536;2022-09-03T06:45:15;17.40;63.00
19174;DHT22;9719;49.322;8.536;2022-09-03T06:50:17;17.10;64.30
19174;DHT22;9719;49.322;8.536;2022-09-03T06:55:20;17.00;65.40
19174;DHT22;9719;49.322;8.536;2022-09-03T07:00:23;16.70;66.40
19174;DHT22;9719;49.322;8.536;2022-09-03T07:05:25;16.60;67.40
19174;DHT22;9719;49.322;8.536;2022-09-03T07:10:28;16.50;68.20
19174;DHT22;9719;49.322;8.536;2022-09-03T07:15:31;16.30;69.10
19174;DHT22;9719;49.322;8.536;2022-09-03T07:20:33;16.30;69.90
19174;DHT22;9719;49.322;8.536;2022-09-03T07:25:36;16.30;70.30
19174;DHT22;9719;49.322;8.536;2022-09-03T07:30:39;16.30;70.80
19174;DHT22;9719;49.322;8.536;2022-09-03T07:35:41;16.30;71.60
19174;DHT22;9719;49.322;8.536;2022-09-03T07:40:44;16.30;71.90
19174;DHT22;9719;49.322;8.536;2022-09-03T07:45:50;16.30;72.40
19174;DHT22;9719;49.322;8.536;2022-09-03T07:50:57;16.30;73.30
19174;DHT22;9719;49.322;8.536;2022-09-03T07:56:01;16.30;73.70
19174;DHT22;9719;49.322;8.536;2022-09-03T08:01:08;16.20;74.20
19174;DHT22;9719;49.322;8.536;2022-09-03T08:06:11;16.20;74.90
19174;DHT22;9719;49.322;8.536;2022-09-03T08:11:15;16.20;75.10
19174;DHT22;9719;49.322;8.536;2022-09-03T08:16:19;16.30;75.80
19174;DHT22;9719;49.322;8.536;2022-09-03T08:21:22;16.30;76.20
19174;DHT22;9719;49.322;8.536;2022-09-03T08:26:24;16.40;76.50
19174;DHT22;9719;49.322;8.536;2022-09-03T08:31:28;16.40;77.10
19174;DHT22;9719;49.322;8.536;2022-09-03T08:36:32;16.30;77.70
19174;DHT22;9719;49.322;8.536;2022-09-03T08:47:01;16.20;78.80
19174;DHT22;9719;49.322;8.536;2022-09-03T08:52:15;16.20;79.20
19174;DHT22;9719;49.322;8.536;2022-09-03T08:57:21;16.20;79.50
19174;DHT22;9719;49.322;8.536;2022-09-03T09:02:32;16.20;79.60
19174;DHT22;9719;49.322;8.536;2022-09-03T09:07:49;16.20;79.90
19174;DHT22;9719;49.322;8.536;2022-09-03T09:13:07;16.30;80.10
19174;DHT22;9719;49.322;8.536;2022-09-03T09:18:22;16.50;80.10
19174;DHT22;9719;49.322;8.536;2022-09-03T09:23:29;16.70;80.40
19174;DHT22;9719;49.322;8.536;2022-09-03T09:28:33;16.90;80.50
19174;DHT22;9719;49.322;8.536;2022-09-03T09:33:38;17.00;80.60
19174;DHT22;9719;49.322;8.536;2022-09-03T09:38:40;17.20;80.90
19174;DHT22;9719;49.322;8.536;2022-09-03T09:43:43;17.40;81.30
19174;DHT22;9719;49.322;8.536;2022-09-03T09:48:49;17.40;81.30
19174;DHT22;9719;49.322;8.536;2022-09-03T09:54:11;17.60;82.20
19174;DHT22;9719;49.322;8.536;2022-09-03T09:59:14;17.90;81.80
19174;DHT22;9719;49.322;8.536;2022-09-03T10:04:23;18.00;81.80
19174;DHT22;9719;49.322;8.536;2022-09-03T10:09:31;18.00;82.20
19174;DHT22;9719;49.322;8.536;2022-09-03T10:14:37;18.00;82.40
19174;DHT22;9719;49.322;8.536;2022-09-03T10:19:49;18.20;82.60
19174;DHT22;9719;49.322;8.536;2022-09-03T10:25:10;18.20;82.60
19174;DHT22;9719;49.322;8.536;2022-09-03T10:30:12;18.30;82.40
19174;DHT22;9719;49.322;8.536;2022-09-03T10:35:22;18.50;83.20
19174;DHT22;9719;49.322;8.536;2022-09-03T10:40:30;18.80;83.10
19174;DHT22;9719;49.322;8.536;2022-09-03T10:45:40;19.00;82.90
19174;DHT22;9719;49.322;8.536;2022-09-03T10:50:50;19.20;83.30
19174;DHT22;9719;49.322;8.536;2022-09-03T10:55:57;19.60;83.50
19174;DHT22;9719;49.322;8.536;2022-09-03T11:01:08;20.00;82.70
19174;DHT22;9719;49.322;8.536;2022-09-03T11:06:18;20.20;83.00
19174;DHT22;9719;49.322;8.536;2022-09-03T11:11:25;20.60;82.90
19174;DHT22;9719;49.322;8.536;2022-09-03T11:16:31;21.10;82.30
19174;DHT22;9719;49.322;8.536;2022-09-03T11:21:37;21.40;81.10
19174;DHT22;9719;49.322;8.536;2022-09-03T11:26:43;21.50;81.00
19174;DHT22;9719;49.322;8.536;2022-09-03T11:31:55;21.70;80.70
19174;DHT22;9719;49.322;8.536;2022-09-03T11:37:16;21.90;79.80
19174;DHT22;9719;49.322;8.536;2022-09-03T11:42:28;22.00;79.80
19174;DHT22;9719;49.322;8.536;2022-09-03T11:47:39;22.20;80.00
19174;DHT22;9719;49.322;8.536;2022-09-03T11:52:42;22.30;79.20
19174;DHT22;9719;49.322;8.536;2022-09-03T11:57:44;22.40;78.80
19174;DHT22;9719;49.322;8.536;2022-09-03T12:02:49;22.50;79.20
19174;DHT22;9719;49.322;8.536;2022-09-03T12:08:24;22.70;79.10
19174;DHT22;9719;49.322;8.536;2022-09-03T12:13:43;22.80;78.50
19174;DHT22;9719;49.322;8.536;2022-09-03T12:18:47;22.90;78.30
19174;DHT22;9719;49.322;8.536;2022-09-03T12:23:53;22.90;78.00
19174;DHT22;9719;49.322;8.536;2022-09-03T12:28:57;23.10;77.70
19174;DHT22;9719;49.322;8.536;2022-09-03T12:34:01;23.30;76.40
19174;DHT22;9719;49.322;8.536;2022-09-03T12:39:08;23.40;75.50
19174;DHT22;9719;49.322;8.536;2022-09-03T12:44:11;23.70;75.40
19174;DHT22;9719;49.322;8.536;2022-09-03T12:49:14;23.90;74.90
19174;DHT22;9719;49.322;8.536;2022-09-03T12:54:17;23.90;74.10
19174;DHT22;9719;49.322;8.536;2022-09-03T12:59:20;24.10;74.50
19174;DHT22;9719;49.322;8.536;2022-09-03T13:04:25;24.40;72.60
19174;DHT22;9719;49.322;8.536;2022-09-03T13:09:32;24.50;71.90
19174;DHT22;9719;49.322;8.536;2022-09-03T13:14:42;24.60;71.60
19174;DHT22;9719;49.322;8.536;2022-09-03T13:25:18;25.00;70.80
19174;DHT22;9719;49.322;8.536;2022-09-03T13:30:29;25.10;70.00
19174;DHT22;9719;49.322;8.536;2022-09-03T13:35:35;25.10;69.80
19174;DHT22;9719;49.322;8.536;2022-09-03T13:40:49;25.10;69.80
19174;DHT22;9719;49.322;8.536;2022-09-03T13:45:56;25.00;69.40
19174;DHT22;9719;49.322;8.536;2022-09-03T13:51:05;25.00;69.80
19174;DHT22;9719;49.322;8.536;2022-09-03T13:56:24;25.00;69.40
19174;DHT22;9719;49.322;8.536;2022-09-03T14:01:45;25.30;69.40
19174;DHT22;9719;49.322;8.536;2022-09-03T14:06:58;25.30;68.70
19174;DHT22;9719;49.322;8.536;2022-09-03T14:12:13;25.50;68.40
19174;DHT22;9719;49.322;8.536;2022-09-03T14:17:23;25.50;67.70
19174;DHT22;9719;49.322;8.536;2022-09-03T14:22:43;25.50;67.70
19174;DHT22;9719;49.322;8.536;2022-09-03T14:27:48;25.50;67.50
19174;DHT22;9719;49.322;8.536;2022-09-03T14:32:53;25.30;67.60
19174;DHT22;9719;49.322;8.536;2022-09-03T14:55:05;24.80;68.10
19174;DHT22;9719;49.322;8.536;2022-09-03T15:00:15;24.60;67.90
19174;DHT22;9719;49.322;8.536;2022-09-03T15:05:40;24.50;68.40
19174;DHT22;9719;49.322;8.536;2022-09-03T15:10:46;24.30;68.70
19174;DHT22;9719;49.322;8.536;2022-09-03T15:16:03;24.20;69.20
19174;DHT22;9719;49.322;8.536;2022-09-03T15:21:56;24.10;69.40
19174;DHT22;9719;49.322;8.536;2022-09-03T15:27:22;24.00;69.50
19174;DHT22;9719;49.322;8.536;2022-09-03T15:32:43;24.00;69.90
19174;DHT22;9719;49.322;8.536;2022-09-03T15:38:18;23.90;70.50
19174;DHT22;9719;49.322;8.536;2022-09-03T15:43:24;23.70;70.90
19174;DHT22;9719;49.322;8.536;2022-09-03T15:48:33;23.40;71.70
19174;DHT22;9719;49.322;8.536;2022-09-03T15:53:47;23.20;72.50
19174;DHT22;9719;49.322;8.536;2022-09-03T15:58:57;22.90;73.40
19174;DHT22;9719;49.322;8.536;2022-09-03T16:04:09;22.70;74.30
19174;DHT22;9719;49.322;8.536;2022-09-03T16:09:28;22.40;75.00
19174;DHT22;9719;49.322;8.536;2022-09-03T16:14:34;22.20;75.50
19174;DHT22;9719;49.322;8.536;2022-09-03T16:19:44;22.20;76.50
19174;DHT22;9719;49.322;8.536;2022-09-03T16:24:53;22.00;77.30
19174;DHT22;9719;49.322;8.536;2022-09-03T16:29:59;22.00;78.10
19174;DHT22;9719;49.322;8.536;2022-09-03T16:35:09;22.00;78.50
19174;DHT22;9719;49.322;8.536;2022-09-03T16:40:21;22.00;78.90
19174;DHT22;9719;49.322;8.536;2022-09-03T16:45:32;22.00;79.20
19174;DHT22;9719;49.322;8.536;2022-09-03T16:50:52;22.00;79.50
19174;DHT22;9719;49.322;8.536;2022-09-03T16:56:15;22.00;79.60
19174;DHT22;9719;49.322;8.536;2022-09-03T17:01:43;22.00;79.60
19174;DHT22;9719;49.322;8.536;2022-09-03T17:06:59;22.00;79.80
19174;DHT22;9719;49.322;8.536;2022-09-03T17:12:17;21.90;80.10
19174;DHT22;9719;49.322;8.536;2022-09-03T17:17:35;21.90;80.30
19174;DHT22;9719;49.322;8.536;2022-09-03T17:23:00;22.00;80.30
19174;DHT22;9719;49.322;8.536;2022-09-03T17:28:19;21.90;80.40
19174;DHT22;9719;49.322;8.536;2022-09-03T17:33:42;21.80;80.50
19174;DHT22;9719;49.322;8.536;2022-09-03T17:39:19;21.80;80.50
19174;DHT22;9719;49.322;8.536;2022-09-03T17:44:38;21.80;80.30
19174;DHT22;9719;49.322;8.536;2022-09-03T17:49:46;21.70;80.70
19174;DHT22;9719;49.322;8.536;2022-09-03T17:54:51;21.70;80.80
19174;DHT22;9719;49.322;8.536;2022-09-03T18:00:00;21.60;80.60
19174;DHT22;9719;49.322;8.536;2022-09-03T18:05:09;21.70;80.80
19174;DHT22;9719;49.322;8.536;2022-09-03T18:10:23;21.60;80.80
19174;DHT22;9719;49.322;8.536;2022-09-03T18:15:31;21.50;80.70
19174;DHT22;9719;49.322;8.536;2022-09-03T18:20:41;21.00;80.40
19174;DHT22;9719;49.322;8.536;2022-09-03T18:26:05;21.40;80.70
19174;DHT22;9719;49.322;8.536;2022-09-03T18:31:26;21.30;80.70
19174;DHT22;9719;49.322;8.536;2022-09-03T18:36:45;21.30;81.00
19174;DHT22;9719;49.322;8.536;2022-09-03T18:42:10;21.20;81.10
19174;DHT22;9719;49.322;8.536;2022-09-03T18:47:45;21.10;81.40
19174;DHT22;9719;49.322;8.536;2022-09-03T18:53:11;21.00;81.50
19174;DHT22;9719;49.322;8.536;2022-09-03T18:58:41;21.00;81.60
19174;DHT22;9719;49.322;8.536;2022-09-03T19:04:14;20.90;81.80
19174;DHT22;9719;49.322;8.536;2022-09-03T19:09:47;21.30;82.30
19174;DHT22;9719;49.322;8.536;2022-09-03T19:15:16;20.70;82.30
19174;DHT22;9719;49.322;8.536;2022-09-03T19:20:45;20.70;82.30
19174;DHT22;9719;49.322;8.536;2022-09-03T19:26:19;20.70;82.30
19174;DHT22;9719;49.322;8.536;2022-09-03T19:31:44;20.60;82.40
19174;DHT22;9719;49.322;8.536;2022-09-03T19:37:10;20.60;82.50
19174;DHT22;9719;49.322;8.536;2022-09-03T19:42:42;20.60;82.70
19174;DHT22;9719;49.322;8.536;2022-09-03T19:48:10;20.50;82.80
19174;DHT22;9719;49.322;8.536;2022-09-03T19:53:33;20.50;83.00
19174;DHT22;9719;49.322;8.536;2022-09-03T19:58:55;20.50;83.00
19174;DHT22;9719;49.322;8.536;2022-09-03T20:04:15;20.50;82.90
19174;DHT22;9719;49.322;8.536;2022-09-03T20:09:39;20.40;83.00
19174;DHT22;9719;49.322;8.536;2022-09-03T20:15:02;20.40;83.20
19174;DHT22;9719;49.322;8.536;2022-09-03T20:20:13;20.30;83.30
19174;DHT22;9719;49.322;8.536;2022-09-03T20:25:38;20.30;83.40
19174;DHT22;9719;49.322;8.536;2022-09-03T20:30:47;20.30;83.30
19174;DHT22;9719;49.322;8.536;2022-09-03T20:35:58;20.30;83.60
19174;DHT22;9719;49.322;8.536;2022-09-03T20:41:11;20.30;83.70
19174;DHT22;9719;49.322;8.536;2022-09-03T20:46:28;20.30;83.70
19174;DHT22;9719;49.322;8.536;2022-09-03T20:51:37;20.20;83.60
19174;DHT22;9719;49.322;8.536;2022-09-03T20:57:00;20.10;83.90
19174;DHT22;9719;49.322;8.536;2022-09-03T21:02:14;20.10;83.70
19174;DHT22;9719;49.322;8.536;2022-09-03T21:07:31;20.10;84.10
19174;DHT22;9719;49.322;8.536;2022-09-03T21:12:44;20.00;84.10
19174;DHT22;9719;49.322;8.536;2022-09-03T21:17:57;20.00;84.10
19174;DHT22;9719;49.322;8.536;2022-09-03T21:23:12;19.90;84.20
19174;DHT22;9719;49.322;8.536;2022-09-03T21:28:21;19.80;84.30
19174;DHT22;9719;49.322;8.536;2022-09-03T21:33:26;19.80;84.60
19174;DHT22;9719;49.322;8.536;2022-09-03T21:38:33;19.80;84.70
19174;DHT22;9719;49.322;8.536;2022-09-03T21:43:43;19.80;84.90
19174;DHT22;9719;49.322;8.536;2022-09-03T21:48:49;19.80;85.00
19174;DHT22;9719;49.322;8.536;2022-09-03T21:53:56;19.70;85.00
19174;DHT22;9719;49.322;8.536;2022-09-03T21:59:05;19.70;85.20
19174;DHT22;9719;49.322;8.536;2022-09-03T22:04:11;19.70;85.30
19174;DHT22;9719;49.322;8.536;2022-09-03T22:09:17;19.70;85.20
19174;DHT22;9719;49.322;8.536;2022-09-03T22:15:17;19.60;85.20
19174;DHT22;9719;49.322;8.536;2022-09-03T22:20:20;19.60;85.00
19174;DHT22;9719;49.322;8.536;2022-09-03T22:25:29;19.50;85.20
19174;DHT22;9719;49.322;8.536;2022-09-03T22:30:40;19.50;85.40
19174;DHT22;9719;49.322;8.536;2022-09-03T22:36:00;19.60;85.30
19174;DHT22;9719;49.322;8.536;2022-09-03T22:41:12;19.50;85.20
19174;DHT22;9719;49.322;8.536;2022-09-03T22:46:19;19.40;85.10
19174;DHT22;9719;49.322;8.536;2022-09-03T22:51:23;19.40;85.20
19174;DHT22;9719;49.322;8.536;2022-09-03T22:56:30;19.40;85.00
19174;DHT22;9719;49.322;8.536;2022-09-03T23:01:42;19.40;85.00
19174;DHT22;9719;49.322;8.536;2022-09-03T23:06:48;19.20;84.90
19174;DHT22;9719;49.322;8.536;2022-09-03T23:11:56;19.20;85.00
19174;DHT22;9719;49.322;8.536;2022-09-03T23:17:06;19.20;85.00
19174;DHT22;9719;49.322;8.536;2022-09-03T23:22:10;19.10;85.00
19174;DHT22;9719;49.322;8.536;2022-09-03T23:27:16;19.10;85.00
19174;DHT22;9719;49.322;8.536;2022-09-03T23:32:21;19.00;85.00
19174;DHT22;9719;49.322;8.536;2022-09-03T23:37:39;19.00;85.00
19174;DHT22;9719;49.322;8.536;2022-09-03T23:42:53;18.90;85.20
19174;DHT22;9719;49.322;8.536;2022-09-03T23:48:05;18.90;85.20
19174;DHT22;9719;49.322;8.536;2022-09-03T23:53:22;18.80;85.00
19174;DHT22;9719;49.322;8.536;2022-09-03T23:58:34;18.80;85.20
